sensor_id;sensor_type;location;lat;lon;timestamp;pressure;altitude;pressure_sealevel;temperature;humidity
43681;BME280;29281;50.356;30.894;2022-09-09T00:00:16;100737.24;;;11.40;62.71
43681;BME280;29281;50.356;30.894;2022-09-09T00:01:33;100734.95;;;11.34;62.84
43681;BME280;29281;50.356;30.894;2022-09-09T00:02:37;100743.12;;;11.31;62.96
43681;BME280;29281;50.356;30.894;2022-09-09T00:03:51;100744.28;;;11.27;63.09
43681;BME280;29281;50.356;30.894;2022-09-09T00:06:11;100750.55;;;11.26;63.19
43681;BME280;29281;50.356;30.894;2022-09-09T00:09:05;100739.73;;;11.29;63.08
43681;BME280;29281;50.356;30.894;2022-09-09T00:09:46;100738.02;;;11.28;63.06
43681;BME280;29281;50.356;30.894;2022-09-09T00:10:54;100738.56;;;11.19;63.37
43681;BME280;29281;50.356;30.894;2022-09-09T00:12:01;100740.19;;;11.21;63.33
43681;BME280;29281;50.356;30.894;2022-09-09T00:14:35;100730.69;;;11.17;63.31
43681;BME280;29281;50.356;30.894;2022-09-09T00:15:47;100734.20;;;11.18;63.41
43681;BME280;29281;50.356;30.894;2022-09-09T00:16:50;100729.46;;;11.09;63.51
43681;BME280;29281;50.356;30.894;2022-09-09T00:20:24;100724.72;;;11.00;63.91
43681;BME280;29281;50.356;30.894;2022-09-09T00:21:37;100725.19;;;11.06;63.82
43681;BME280;29281;50.356;30.894;2022-09-09T00:22:34;100730.77;;;11.02;63.93
43681;BME280;29281;50.356;30.894;2022-09-09T00:23:42;100730.22;;;10.97;64.05
43681;BME280;29281;50.356;30.894;2022-09-09T00:24:46;100731.35;;;11.07;63.71
43681;BME280;29281;50.356;30.894;2022-09-09T00:26:03;100730.04;;;11.00;63.88
43681;BME280;29281;50.356;30.894;2022-09-09T00:27:08;100732.02;;;10.96;64.11
43681;BME280;29281;50.356;30.894;2022-09-09T00:28:19;100731.80;;;10.85;64.50
43681;BME280;29281;50.356;30.894;2022-09-09T00:29:26;100730.58;;;10.90;64.44
43681;BME280;29281;50.356;30.894;2022-09-09T00:30:34;100727.45;;;10.84;64.67
43681;BME280;29281;50.356;30.894;2022-09-09T00:31:38;100725.25;;;10.76;64.92
43681;BME280;29281;50.356;30.894;2022-09-09T00:32:41;100724.98;;;10.81;64.87
43681;BME280;29281;50.356;30.894;2022-09-09T00:33:45;100726.98;;;10.91;64.54
43681;BME280;29281;50.356;30.894;2022-09-09T00:34:55;100728.78;;;10.91;64.51
43681;BME280;29281;50.356;30.894;2022-09-09T00:36:00;100729.64;;;10.91;64.47
43681;BME280;29281;50.356;30.894;2022-09-09T00:37:04;100731.26;;;10.94;64.40
43681;BME280;29281;50.356;30.894;2022-09-09T00:38:14;100732.78;;;10.98;64.28
43681;BME280;29281;50.356;30.894;2022-09-09T00:40:38;100741.98;;;10.92;64.54
43681;BME280;29281;50.356;30.894;2022-09-09T00:43:07;100736.48;;;10.96;64.38
43681;BME280;29281;50.356;30.894;2022-09-09T00:45:42;100740.17;;;10.93;64.47
43681;BME280;29281;50.356;30.894;2022-09-09T00:46:48;100741.70;;;10.97;64.26
43681;BME280;29281;50.356;30.894;2022-09-09T00:47:50;100735.35;;;11.00;64.18
43681;BME280;29281;50.356;30.894;2022-09-09T00:51:50;100749.18;;;10.90;64.50
43681;BME280;29281;50.356;30.894;2022-09-09T00:55:21;100750.91;;;11.06;64.12
43681;BME280;29281;50.356;30.894;2022-09-09T00:56:20;100754.69;;;11.02;63.98
43681;BME280;29281;50.356;30.894;2022-09-09T00:57:30;100747.02;;;10.97;64.16
43681;BME280;29281;50.356;30.894;2022-09-09T00:58:36;100760.84;;;10.88;64.37
43681;BME280;29281;50.356;30.894;2022-09-09T00:59:47;100755.42;;;10.75;64.77
43681;BME280;29281;50.356;30.894;2022-09-09T01:00:52;100753.97;;;10.70;64.97
43681;BME280;29281;50.356;30.894;2022-09-09T01:01:56;100743.84;;;10.76;64.76
43681;BME280;29281;50.356;30.894;2022-09-09T01:04:29;100747.53;;;10.74;64.85
43681;BME280;29281;50.356;30.894;2022-09-09T01:05:35;100746.68;;;10.73;64.84
43681;BME280;29281;50.356;30.894;2022-09-09T01:06:42;100750.92;;;10.62;65.09
43681;BME280;29281;50.356;30.894;2022-09-09T01:07:48;100760.39;;;10.51;65.49
43681;BME280;29281;50.356;30.894;2022-09-09T01:09:15;100761.51;;;10.47;65.58
43681;BME280;29281;50.356;30.894;2022-09-09T01:10:26;100754.88;;;10.54;65.44
43681;BME280;29281;50.356;30.894;2022-09-09T01:11:36;100761.05;;;10.55;65.49
43681;BME280;29281;50.356;30.894;2022-09-09T01:12:40;100767.12;;;10.57;65.38
43681;BME280;29281;50.356;30.894;2022-09-09T01:13:48;100771.23;;;10.63;65.27
43681;BME280;29281;50.356;30.894;2022-09-09T01:15:08;100771.58;;;10.56;65.45
43681;BME280;29281;50.356;30.894;2022-09-09T01:16:15;100761.81;;;10.57;65.29
43681;BME280;29281;50.356;30.894;2022-09-09T01:17:21;100767.22;;;10.55;65.43
43681;BME280;29281;50.356;30.894;2022-09-09T01:18:27;100763.82;;;10.53;65.43
43681;BME280;29281;50.356;30.894;2022-09-09T01:22:26;100761.25;;;10.52;65.57
43681;BME280;29281;50.356;30.894;2022-09-09T01:27:15;100767.22;;;10.55;65.35
43681;BME280;29281;50.356;30.894;2022-09-09T01:28:21;100768.45;;;10.50;65.50
43681;BME280;29281;50.356;30.894;2022-09-09T01:29:26;100768.45;;;10.50;65.56
43681;BME280;29281;50.356;30.894;2022-09-09T01:30:37;100773.77;;;10.50;65.54
43681;BME280;29281;50.356;30.894;2022-09-09T01:31:55;100773.16;;;10.45;65.80
43681;BME280;29281;50.356;30.894;2022-09-09T01:33:00;100767.25;;;10.40;65.91
43681;BME280;29281;50.356;30.894;2022-09-09T01:34:10;100772.08;;;10.33;66.07
43681;BME280;29281;50.356;30.894;2022-09-09T01:35:19;100767.80;;;10.31;66.39
43681;BME280;29281;50.356;30.894;2022-09-09T01:36:41;100774.27;;;10.41;66.23
43681;BME280;29281;50.356;30.894;2022-09-09T01:37:28;100768.23;;;10.39;66.12
43681;BME280;29281;50.356;30.894;2022-09-09T01:38:30;100771.91;;;10.36;66.20
43681;BME280;29281;50.356;30.894;2022-09-09T01:39:36;100768.48;;;10.34;66.30
43681;BME280;29281;50.356;30.894;2022-09-09T01:40:43;100767.54;;;10.35;66.22
43681;BME280;29281;50.356;30.894;2022-09-09T01:41:47;100768.11;;;10.40;66.15
43681;BME280;29281;50.356;30.894;2022-09-09T01:42:53;100760.06;;;10.42;65.97
43681;BME280;29281;50.356;30.894;2022-09-09T01:43:57;100767.59;;;10.49;65.76
43681;BME280;29281;50.356;30.894;2022-09-09T01:45:06;100764.25;;;10.46;65.90
43681;BME280;29281;50.356;30.894;2022-09-09T01:46:10;100757.91;;;10.48;65.80
43681;BME280;29281;50.356;30.894;2022-09-09T01:47:16;100759.88;;;10.45;65.91
43681;BME280;29281;50.356;30.894;2022-09-09T01:48:31;100761.77;;;10.43;65.94
43681;BME280;29281;50.356;30.894;2022-09-09T01:49:39;100757.41;;;10.42;65.85
43681;BME280;29281;50.356;30.894;2022-09-09T01:50:44;100760.66;;;10.47;65.81
43681;BME280;29281;50.356;30.894;2022-09-09T01:51:50;100755.52;;;10.44;65.92
43681;BME280;29281;50.356;30.894;2022-09-09T01:52:59;100754.66;;;10.43;65.86
43681;BME280;29281;50.356;30.894;2022-09-09T01:54:05;100751.06;;;10.44;65.80
43681;BME280;29281;50.356;30.894;2022-09-09T01:55:09;100746.69;;;10.43;65.74
43681;BME280;29281;50.356;30.894;2022-09-09T02:00:07;100748.58;;;10.41;65.89
43681;BME280;29281;50.356;30.894;2022-09-09T02:01:27;100757.48;;;10.40;65.89
43681;BME280;29281;50.356;30.894;2022-09-09T02:02:27;100754.75;;;10.42;65.79
43681;BME280;29281;50.356;30.894;2022-09-09T02:03:34;100757.31;;;10.43;65.76
43681;BME280;29281;50.356;30.894;2022-09-09T02:04:47;100756.11;;;10.49;65.60
43681;BME280;29281;50.356;30.894;2022-09-09T02:07:02;100757.23;;;10.45;65.54
43681;BME280;29281;50.356;30.894;2022-09-09T02:08:15;100746.13;;;10.38;65.79
43681;BME280;29281;50.356;30.894;2022-09-09T02:09:21;100747.25;;;10.34;65.95
43681;BME280;29281;50.356;30.894;2022-09-09T02:10:32;100742.79;;;10.35;65.78
43681;BME280;29281;50.356;30.894;2022-09-09T02:11:43;100746.39;;;10.34;65.88
43681;BME280;29281;50.356;30.894;2022-09-09T02:12:51;100735.17;;;10.29;66.17
43681;BME280;29281;50.356;30.894;2022-09-09T02:14:12;100745.53;;;10.33;66.05
43681;BME280;29281;50.356;30.894;2022-09-09T02:15:20;100738.00;;;10.26;66.11
43681;BME280;29281;50.356;30.894;2022-09-09T02:16:30;100744.77;;;10.31;65.99
43681;BME280;29281;50.356;30.894;2022-09-09T02:17:32;100742.83;;;10.19;66.50
43681;BME280;29281;50.356;30.894;2022-09-09T02:20:10;100748.69;;;10.08;66.93
43681;BME280;29281;50.356;30.894;2022-09-09T02:21:13;100752.48;;;10.04;67.06
43681;BME280;29281;50.356;30.894;2022-09-09T02:22:19;100752.89;;;10.12;66.78
43681;BME280;29281;50.356;30.894;2022-09-09T02:23:24;100759.44;;;10.23;66.49
43681;BME280;29281;50.356;30.894;2022-09-09T02:24:29;100749.93;;;10.18;66.59
43681;BME280;29281;50.356;30.894;2022-09-09T02:25:39;100754.78;;;10.26;66.48
43681;BME280;29281;50.356;30.894;2022-09-09T02:26:51;100752.58;;;10.18;66.59
43681;BME280;29281;50.356;30.894;2022-09-09T02:27:56;100754.12;;;10.23;66.40
43681;BME280;29281;50.356;30.894;2022-09-09T02:29:02;100753.84;;;10.27;66.24
43681;BME280;29281;50.356;30.894;2022-09-09T02:30:07;100753.84;;;10.27;66.29
43681;BME280;29281;50.356;30.894;2022-09-09T02:31:21;100755.16;;;10.20;66.51
43681;BME280;29281;50.356;30.894;2022-09-09T02:32:21;100751.56;;;10.21;66.48
43681;BME280;29281;50.356;30.894;2022-09-09T02:33:26;100751.01;;;10.14;66.58
43681;BME280;29281;50.356;30.894;2022-09-09T02:34:31;100759.74;;;10.16;66.46
43681;BME280;29281;50.356;30.894;2022-09-09T02:35:37;100748.61;;;10.10;66.69
43681;BME280;29281;50.356;30.894;2022-09-09T02:36:43;100753.83;;;10.11;66.62
43681;BME280;29281;50.356;30.894;2022-09-09T02:37:50;100743.13;;;10.13;66.50
43681;BME280;29281;50.356;30.894;2022-09-09T02:39:00;100751.01;;;10.14;66.49
43681;BME280;29281;50.356;30.894;2022-09-09T02:40:06;100753.06;;;10.09;66.75
43681;BME280;29281;50.356;30.894;2022-09-09T02:41:17;100751.17;;;10.11;66.71
43681;BME280;29281;50.356;30.894;2022-09-09T02:42:21;100751.27;;;10.10;66.81
43681;BME280;29281;50.356;30.894;2022-09-09T02:43:25;100755.23;;;10.18;66.58
43681;BME280;29281;50.356;30.894;2022-09-09T02:44:29;100756.48;;;10.11;66.59
43681;BME280;29281;50.356;30.894;2022-09-09T02:45:35;100760.16;;;10.09;66.88
43681;BME280;29281;50.356;30.894;2022-09-09T02:46:56;100755.83;;;10.08;66.71
43681;BME280;29281;50.356;30.894;2022-09-09T02:48:03;100756.48;;;10.11;66.65
43681;BME280;29281;50.356;30.894;2022-09-09T02:50:19;100758.98;;;9.99;67.22
43681;BME280;29281;50.356;30.894;2022-09-09T02:51:24;100756.16;;;10.02;67.12
43681;BME280;29281;50.356;30.894;2022-09-09T02:52:35;100755.47;;;9.98;67.10
43681;BME280;29281;50.356;30.894;2022-09-09T02:53:41;100759.52;;;9.90;67.31
43681;BME280;29281;50.356;30.894;2022-09-09T02:54:45;100755.84;;;9.92;67.23
43681;BME280;29281;50.356;30.894;2022-09-09T02:56:57;100755.84;;;9.92;67.36
43681;BME280;29281;50.356;30.894;2022-09-09T02:58:04;100757.36;;;9.96;67.22
43681;BME280;29281;50.356;30.894;2022-09-09T02:59:08;100757.36;;;9.96;67.23
43681;BME280;29281;50.356;30.894;2022-09-09T03:00:14;100752.50;;;9.88;67.41
43681;BME280;29281;50.356;30.894;2022-09-09T03:01:20;100752.05;;;9.80;67.58
43681;BME280;29281;50.356;30.894;2022-09-09T03:02:24;100752.91;;;9.81;67.67
43681;BME280;29281;50.356;30.894;2022-09-09T03:03:30;100753.27;;;9.75;67.91
43681;BME280;29281;50.356;30.894;2022-09-09T03:04:41;100755.84;;;9.76;67.89
43681;BME280;29281;50.356;30.894;2022-09-09T03:05:42;100753.27;;;9.75;67.99
43681;BME280;29281;50.356;30.894;2022-09-09T03:06:46;100752.91;;;9.81;67.73
43681;BME280;29281;50.356;30.894;2022-09-09T03:07:51;100757.72;;;9.74;67.87
43681;BME280;29281;50.356;30.894;2022-09-09T03:08:56;100749.68;;;9.76;67.83
43681;BME280;29281;50.356;30.894;2022-09-09T03:10:03;100746.25;;;9.74;67.81
43681;BME280;29281;50.356;30.894;2022-09-09T03:11:08;100743.52;;;9.75;67.73
43681;BME280;29281;50.356;30.894;2022-09-09T03:12:12;100754.38;;;9.71;67.85
43681;BME280;29281;50.356;30.894;2022-09-09T03:13:15;100751.80;;;9.69;67.99
43681;BME280;29281;50.356;30.894;2022-09-09T03:14:21;100752.58;;;9.71;67.97
43681;BME280;29281;50.356;30.894;2022-09-09T03:15:28;100748.83;;;9.75;67.82
43681;BME280;29281;50.356;30.894;2022-09-09T03:16:34;100750.42;;;9.78;67.76
43681;BME280;29281;50.356;30.894;2022-09-09T03:17:37;100754.05;;;9.77;67.80
43681;BME280;29281;50.356;30.894;2022-09-09T03:18:40;100761.89;;;9.78;67.64
43681;BME280;29281;50.356;30.894;2022-09-09T03:19:44;100760.87;;;9.81;67.62
43681;BME280;29281;50.356;30.894;2022-09-09T03:20:48;100753.19;;;9.76;67.69
43681;BME280;29281;50.356;30.894;2022-09-09T03:21:55;100754.12;;;9.75;67.82
43681;BME280;29281;50.356;30.894;2022-09-09T03:22:59;100758.38;;;9.78;67.71
43681;BME280;29281;50.356;30.894;2022-09-09T03:24:03;100761.31;;;9.73;67.96
43681;BME280;29281;50.356;30.894;2022-09-09T03:25:06;100759.68;;;9.71;68.10
43681;BME280;29281;50.356;30.894;2022-09-09T03:26:11;100764.66;;;9.77;67.89
43681;BME280;29281;50.356;30.894;2022-09-09T03:27:19;100762.00;;;9.61;68.56
43681;BME280;29281;50.356;30.894;2022-09-09T03:28:22;100762.41;;;9.69;68.40
43681;BME280;29281;50.356;30.894;2022-09-09T03:29:32;100759.35;;;9.77;68.11
43681;BME280;29281;50.356;30.894;2022-09-09T03:30:35;100763.71;;;9.62;68.44
43681;BME280;29281;50.356;30.894;2022-09-09T03:31:38;100763.80;;;9.76;68.13
43681;BME280;29281;50.356;30.894;2022-09-09T03:32:43;100765.06;;;9.69;68.31
43681;BME280;29281;50.356;30.894;2022-09-09T03:33:48;100766.09;;;9.67;68.42
43681;BME280;29281;50.356;30.894;2022-09-09T03:34:52;100772.86;;;9.72;68.20
43681;BME280;29281;50.356;30.894;2022-09-09T03:35:56;100769.35;;;9.72;68.29
43681;BME280;29281;50.356;30.894;2022-09-09T03:37:01;100775.27;;;9.77;68.00
43681;BME280;29281;50.356;30.894;2022-09-09T03:38:04;100769.44;;;9.86;67.66
43681;BME280;29281;50.356;30.894;2022-09-09T03:39:07;100767.89;;;9.82;67.77
43681;BME280;29281;50.356;30.894;2022-09-09T03:40:12;100774.05;;;9.82;67.71
43681;BME280;29281;50.356;30.894;2022-09-09T03:41:17;100768.75;;;9.82;67.73
43681;BME280;29281;50.356;30.894;2022-09-09T03:42:21;100771.23;;;9.85;67.63
43681;BME280;29281;50.356;30.894;2022-09-09T03:43:28;100770.54;;;9.82;67.67
43681;BME280;29281;50.356;30.894;2022-09-09T03:44:32;100773.27;;;9.80;67.78
43681;BME280;29281;50.356;30.894;2022-09-09T03:45:36;100780.30;;;9.81;67.68
43681;BME280;29281;50.356;30.894;2022-09-09T03:46:39;100776.02;;;9.79;67.62
43681;BME280;29281;50.356;30.894;2022-09-09T03:47:45;100777.39;;;9.86;67.46
43681;BME280;29281;50.356;30.894;2022-09-09T03:48:49;100774.50;;;9.91;67.22
43681;BME280;29281;50.356;30.894;2022-09-09T03:49:55;100779.97;;;9.87;67.24
43681;BME280;29281;50.356;30.894;2022-09-09T03:51:01;100781.52;;;9.92;67.22
43681;BME280;29281;50.356;30.894;2022-09-09T03:52:08;100781.16;;;9.82;67.45
43681;BME280;29281;50.356;30.894;2022-09-09T03:53:11;100779.72;;;9.92;67.26
43681;BME280;29281;50.356;30.894;2022-09-09T03:54:15;100785.88;;;9.93;67.17
43681;BME280;29281;50.356;30.894;2022-09-09T03:55:20;100787.48;;;9.95;67.21
43681;BME280;29281;50.356;30.894;2022-09-09T03:56:24;100791.44;;;9.88;67.26
43681;BME280;29281;50.356;30.894;2022-09-09T03:57:28;100790.91;;;9.97;67.16
43681;BME280;29281;50.356;30.894;2022-09-09T03:58:34;100785.44;;;10.00;67.05
43681;BME280;29281;50.356;30.894;2022-09-09T03:59:39;100783.02;;;10.11;66.69
43681;BME280;29281;50.356;30.894;2022-09-09T04:00:43;100783.63;;;10.16;66.25
43681;BME280;29281;50.356;30.894;2022-09-09T04:01:46;100790.05;;;10.12;66.44
43681;BME280;29281;50.356;30.894;2022-09-09T04:02:51;100786.29;;;10.01;66.63
43681;BME280;29281;50.356;30.894;2022-09-09T04:03:57;100787.48;;;10.11;66.57
43681;BME280;29281;50.356;30.894;2022-09-09T04:05:01;100788.86;;;10.18;66.40
43681;BME280;29281;50.356;30.894;2022-09-09T04:06:07;100791.61;;;10.32;65.95
43681;BME280;29281;50.356;30.894;2022-09-09T04:07:12;100784.33;;;10.36;65.67
43681;BME280;29281;50.356;30.894;2022-09-09T04:08:15;100782.70;;;10.33;65.52
43681;BME280;29281;50.356;30.894;2022-09-09T04:09:19;100787.09;;;10.18;66.07
43681;BME280;29281;50.356;30.894;2022-09-09T04:10:24;100792.01;;;10.09;66.45
43681;BME280;29281;50.356;30.894;2022-09-09T04:11:29;100776.20;;;10.07;66.66
43681;BME280;29281;50.356;30.894;2022-09-09T04:12:33;100780.54;;;10.08;66.56
43681;BME280;29281;50.356;30.894;2022-09-09T04:13:39;100786.29;;;10.01;67.04
43681;BME280;29281;50.356;30.894;2022-09-09T04:14:45;100778.08;;;10.05;67.03
43681;BME280;29281;50.356;30.894;2022-09-09T04:15:55;100780.73;;;9.90;67.40
43681;BME280;29281;50.356;30.894;2022-09-09T04:17:06;100784.74;;;9.97;67.35
43681;BME280;29281;50.356;30.894;2022-09-09T04:18:10;100774.41;;;9.92;67.45
43681;BME280;29281;50.356;30.894;2022-09-09T04:19:13;100773.72;;;9.88;67.62
43681;BME280;29281;50.356;30.894;2022-09-09T04:20:17;100772.01;;;9.87;67.73
43681;BME280;29281;50.356;30.894;2022-09-09T04:21:21;100773.64;;;9.90;67.58
43681;BME280;29281;50.356;30.894;2022-09-09T04:22:25;100767.72;;;10.01;67.23
43681;BME280;29281;50.356;30.894;2022-09-09T04:23:29;100771.14;;;10.03;66.98
43681;BME280;29281;50.356;30.894;2022-09-09T04:24:34;100778.41;;;9.99;67.01
43681;BME280;29281;50.356;30.894;2022-09-09T04:25:37;100775.59;;;9.86;67.23
43681;BME280;29281;50.356;30.894;2022-09-09T04:26:43;100772.62;;;9.93;67.20
43681;BME280;29281;50.356;30.894;2022-09-09T04:27:52;100784.05;;;10.09;66.66
43681;BME280;29281;50.356;30.894;2022-09-09T04:28:56;100782.45;;;10.06;66.77
43681;BME280;29281;50.356;30.894;2022-09-09T04:30:00;100793.15;;;10.05;66.62
43681;BME280;29281;50.356;30.894;2022-09-09T04:31:08;100802.05;;;10.04;66.68
43681;BME280;29281;50.356;30.894;2022-09-09T04:32:13;100803.23;;;10.14;66.44
43681;BME280;29281;50.356;30.894;2022-09-09T04:33:18;100806.91;;;10.11;66.47
43681;BME280;29281;50.356;30.894;2022-09-09T04:34:23;100804.78;;;10.18;66.32
43681;BME280;29281;50.356;30.894;2022-09-09T04:35:28;100803.70;;;10.22;66.11
43681;BME280;29281;50.356;30.894;2022-09-09T04:36:33;100805.98;;;10.28;65.74
43681;BME280;29281;50.356;30.894;2022-09-09T04:37:39;100802.84;;;10.21;65.94
43681;BME280;29281;50.356;30.894;2022-09-09T04:38:43;100808.39;;;10.33;65.73
43681;BME280;29281;50.356;30.894;2022-09-09T04:39:48;100800.57;;;10.45;65.28
43681;BME280;29281;50.356;30.894;2022-09-09T04:40:54;100803.94;;;10.33;65.49
43681;BME280;29281;50.356;30.894;2022-09-09T04:42:00;100802.14;;;10.34;65.57
43681;BME280;29281;50.356;30.894;2022-09-09T04:43:03;100804.25;;;10.43;65.08
43681;BME280;29281;50.356;30.894;2022-09-09T04:44:08;100811.13;;;10.31;65.46
43681;BME280;29281;50.356;30.894;2022-09-09T04:45:11;100811.13;;;10.31;65.51
43681;BME280;29281;50.356;30.894;2022-09-09T04:46:16;100808.48;;;10.31;65.47
43681;BME280;29281;50.356;30.894;2022-09-09T04:47:27;100817.98;;;10.35;65.40
43681;BME280;29281;50.356;30.894;2022-09-09T04:48:30;100825.09;;;10.35;65.42
43681;BME280;29281;50.356;30.894;2022-09-09T04:49:35;100820.20;;;10.27;65.65
43681;BME280;29281;50.356;30.894;2022-09-09T04:50:39;100822.86;;;10.27;65.65
43681;BME280;29281;50.356;30.894;2022-09-09T04:51:45;100822.61;;;10.32;65.55
43681;BME280;29281;50.356;30.894;2022-09-09T04:52:52;100817.88;;;10.52;65.02
43681;BME280;29281;50.356;30.894;2022-09-09T04:53:55;100824.95;;;10.68;64.49
43681;BME280;29281;50.356;30.894;2022-09-09T04:54:58;100823.03;;;10.70;64.24
43681;BME280;29281;50.356;30.894;2022-09-09T04:56:07;100822.60;;;10.77;63.99
43681;BME280;29281;50.356;30.894;2022-09-09T04:57:14;100827.95;;;10.91;63.68
43681;BME280;29281;50.356;30.894;2022-09-09T04:58:19;100831.20;;;10.97;63.21
43681;BME280;29281;50.356;30.894;2022-09-09T04:59:25;100827.52;;;10.99;63.14
43681;BME280;29281;50.356;30.894;2022-09-09T05:00:30;100821.78;;;10.91;63.34
43681;BME280;29281;50.356;30.894;2022-09-09T05:01:36;100820.50;;;10.68;63.99
43681;BME280;29281;50.356;30.894;2022-09-09T05:02:39;100820.78;;;11.08;63.11
43681;BME280;29281;50.356;30.894;2022-09-09T05:03:46;100819.86;;;11.37;62.22
43681;BME280;29281;50.356;30.894;2022-09-09T05:04:52;100813.02;;;11.47;61.64
43681;BME280;29281;50.356;30.894;2022-09-09T05:06:01;100819.19;;;11.48;61.52
43681;BME280;29281;50.356;30.894;2022-09-09T05:07:00;100821.58;;;11.52;61.37
43681;BME280;29281;50.356;30.894;2022-09-09T05:08:03;100819.86;;;11.66;61.11
43681;BME280;29281;50.356;30.894;2022-09-09T05:09:09;100828.88;;;11.49;61.44
43681;BME280;29281;50.356;30.894;2022-09-09T05:10:13;100822.89;;;11.31;62.08
43681;BME280;29281;50.356;30.894;2022-09-09T05:11:20;100835.14;;;11.34;62.16
43681;BME280;29281;50.356;30.894;2022-09-09T05:12:25;100838.39;;;11.39;62.28
43681;BME280;29281;50.356;30.894;2022-09-09T05:13:27;100835.64;;;11.54;62.06
43681;BME280;29281;50.356;30.894;2022-09-09T05:14:30;100837.63;;;11.65;61.63
43681;BME280;29281;50.356;30.894;2022-09-09T05:15:35;100833.19;;;11.80;61.18
43681;BME280;29281;50.356;30.894;2022-09-09T05:16:38;100832.53;;;11.90;60.59
43681;BME280;29281;50.356;30.894;2022-09-09T05:17:42;100822.87;;;12.16;60.44
43681;BME280;29281;50.356;30.894;2022-09-09T05:18:47;100826.59;;;12.41;59.52
43681;BME280;29281;50.356;30.894;2022-09-09T05:19:51;100827.71;;;12.51;59.34
43681;BME280;29281;50.356;30.894;2022-09-09T05:20:59;100823.77;;;12.56;58.95
43681;BME280;29281;50.356;30.894;2022-09-09T05:22:05;100827.29;;;12.57;59.13
43681;BME280;29281;50.356;30.894;2022-09-09T05:23:13;100815.18;;;12.65;59.04
43681;BME280;29281;50.356;30.894;2022-09-09T05:24:17;100828.36;;;12.94;58.19
43681;BME280;29281;50.356;30.894;2022-09-09T05:25:21;100820.73;;;12.75;57.98
43681;BME280;29281;50.356;30.894;2022-09-09T05:26:26;100814.45;;;12.76;58.21
43681;BME280;29281;50.356;30.894;2022-09-09T05:27:28;100818.05;;;12.62;58.72
43681;BME280;29281;50.356;30.894;2022-09-09T05:28:34;100806.53;;;12.62;58.48
43681;BME280;29281;50.356;30.894;2022-09-09T05:29:39;100806.33;;;12.65;58.74
43681;BME280;29281;50.356;30.894;2022-09-09T05:30:44;100810.75;;;12.91;58.34
43681;BME280;29281;50.356;30.894;2022-09-09T05:31:49;100806.02;;;13.34;57.11
43681;BME280;29281;50.356;30.894;2022-09-09T05:32:57;100800.16;;;13.91;55.42
43681;BME280;29281;50.356;30.894;2022-09-09T05:34:01;100809.30;;;14.49;53.77
43681;BME280;29281;50.356;30.894;2022-09-09T05:35:04;100810.60;;;14.43;53.15
43681;BME280;29281;50.356;30.894;2022-09-09T05:36:09;100812.23;;;14.81;52.16
43681;BME280;29281;50.356;30.894;2022-09-09T05:37:16;100809.13;;;14.63;52.30
43681;BME280;29281;50.356;30.894;2022-09-09T05:38:20;100809.83;;;14.18;53.69
43681;BME280;29281;50.356;30.894;2022-09-09T05:39:25;100804.33;;;13.95;54.60
43681;BME280;29281;50.356;30.894;2022-09-09T05:40:30;100801.27;;;13.76;54.89
43681;BME280;29281;50.356;30.894;2022-09-09T05:41:35;100802.12;;;13.77;54.82
43681;BME280;29281;50.356;30.894;2022-09-09T05:42:41;100799.87;;;13.83;54.95
43681;BME280;29281;50.356;30.894;2022-09-09T05:43:44;100806.60;;;13.76;54.99
43681;BME280;29281;50.356;30.894;2022-09-09T05:44:51;100803.45;;;13.58;55.31
43681;BME280;29281;50.356;30.894;2022-09-09T05:46:05;100805.56;;;13.66;55.35
43681;BME280;29281;50.356;30.894;2022-09-09T05:47:09;100815.61;;;13.50;55.97
43681;BME280;29281;50.356;30.894;2022-09-09T05:48:27;100804.17;;;13.60;55.98
43681;BME280;29281;50.356;30.894;2022-09-09T05:49:18;100810.90;;;13.66;55.86
43681;BME280;29281;50.356;30.894;2022-09-09T05:50:22;100803.77;;;13.54;55.85
43681;BME280;29281;50.356;30.894;2022-09-09T05:51:27;100807.06;;;13.45;56.15
43681;BME280;29281;50.356;30.894;2022-09-09T05:52:34;100813.25;;;13.70;55.73
43681;BME280;29281;50.356;30.894;2022-09-09T05:53:39;100810.90;;;14.39;54.23
43681;BME280;29281;50.356;30.894;2022-09-09T05:54:44;100805.80;;;15.41;51.40
43681;BME280;29281;50.356;30.894;2022-09-09T05:55:48;100813.98;;;15.62;50.35
43681;BME280;29281;50.356;30.894;2022-09-09T05:56:55;100808.09;;;15.34;50.98
43681;BME280;29281;50.356;30.894;2022-09-09T05:57:59;100821.91;;;15.06;51.58
43681;BME280;29281;50.356;30.894;2022-09-09T05:59:01;100820.50;;;15.46;50.83
43681;BME280;29281;50.356;30.894;2022-09-09T06:00:06;100821.77;;;15.65;50.33
43681;BME280;29281;50.356;30.894;2022-09-09T06:01:20;100827.44;;;15.27;50.97
43681;BME280;29281;50.356;30.894;2022-09-09T06:02:20;100828.22;;;15.05;51.76
43681;BME280;29281;50.356;30.894;2022-09-09T06:03:25;100825.12;;;14.87;52.44
43681;BME280;29281;50.356;30.894;2022-09-09T06:04:31;100818.44;;;14.82;52.62
43681;BME280;29281;50.356;30.894;2022-09-09T06:05:36;100825.38;;;14.60;53.16
43681;BME280;29281;50.356;30.894;2022-09-09T06:06:41;100822.75;;;14.71;53.12
43681;BME280;29281;50.356;30.894;2022-09-09T06:07:46;100823.16;;;14.54;53.46
43681;BME280;29281;50.356;30.894;2022-09-09T06:08:52;100823.85;;;14.45;54.14
43681;BME280;29281;50.356;30.894;2022-09-09T06:09:56;100822.12;;;14.68;53.72
43681;BME280;29281;50.356;30.894;2022-09-09T06:11:03;100822.33;;;14.89;52.82
43681;BME280;29281;50.356;30.894;2022-09-09T06:12:08;100830.27;;;15.01;51.95
43681;BME280;29281;50.356;30.894;2022-09-09T06:13:13;100827.78;;;15.22;51.79
43681;BME280;29281;50.356;30.894;2022-09-09T06:14:19;100830.69;;;15.19;51.18